Time;durP1;ratioP1;P1;durP2;ratioP2;P2;SDS_P1;SDS_P2;PMS_P1;PMS_P2;Temp;Humidity;BMP_temperature;BMP_pressure;BME280_temperature;BME280_humidity;BME280_pressure;Samples;Min_cycle;Max_cycle;Signal;HPM_P1;HPM_P2
2022/01/03 00:00:26;;;;;;;;;7.67;5.33;;;;;12.04;78.79;101425.75;5142565;27;45254;-80
2022/01/03 00:02:54;;;;;;;;;4.00;4.00;;;;;12.10;79.31;101438.44;5142750;27;45277;-81
2022/01/03 00:05:19;;;;;;;;;5.33;5.00;;;;;11.96;79.33;101435.41;5141987;27;45595;-81
2022/01/03 00:07:46;;;;;;;;;5.00;3.00;;;;;11.96;79.16;101434.56;5123309;27;46643;-80
2022/01/03 00:10:13;;;;;;;;;5.33;4.67;;;;;11.95;79.27;101439.06;5142542;27;45259;-81
2022/01/03 00:12:39;;;;;;;;;0.33;0.33;;;;;12.00;79.11;101457.19;5142409;27;45298;-80
2022/01/03 00:15:09;;;;;;;;;3.00;3.00;;;;;12.01;79.48;101466.88;5142356;27;45279;-80
2022/01/03 00:17:35;;;;;;;;;5.00;2.33;;;;;11.99;79.51;101456.38;5142197;27;46596;-81
2022/01/03 00:20:01;;;;;;;;;4.67;4.00;;;;;11.91;79.76;101452.88;5142351;27;45321;-80
2022/01/03 00:22:31;;;;;;;;;8.00;5.33;;;;;11.76;79.44;101418.91;5142157;27;45340;-82
2022/01/03 00:25:02;;;;;;;;;5.00;4.50;;;;;11.98;79.58;101457.34;5142261;27;45241;-81
2022/01/03 00:27:35;;;;;;;;;3.00;3.00;;;;;11.91;79.79;101453.69;5142109;27;45343;-80
2022/01/03 00:30:02;;;;;;;;;5.33;3.67;;;;;11.95;79.55;101465.72;5123373;27;45274;-81
2022/01/03 00:32:28;;;;;;;;;4.67;4.67;;;;;11.83;79.46;101446.53;5142216;27;45324;-80
2022/01/03 00:34:55;;;;;;;;;4.33;4.33;;;;;11.92;79.62;101473.19;5123358;27;47060;-80
2022/01/03 00:37:23;;;;;;;;;6.00;3.33;;;;;11.89;79.58;101476.19;5149604;27;45344;-81
2022/01/03 00:39:50;;;;;;;;;3.00;2.33;;;;;11.86;79.60;101467.50;5162861;27;45398;-80
2022/01/03 00:42:16;;;;;;;;;3.33;3.33;;;;;11.80;79.90;101462.03;5163173;27;45290;-81
2022/01/03 00:44:46;;;;;;;;;4.33;4.00;;;;;11.76;79.66;101466.03;5162816;27;45302;-81
2022/01/03 00:47:11;;;;;;;;;4.00;3.33;;;;;11.73;79.92;101473.31;5162789;27;46086;-81
2022/01/03 00:49:39;;;;;;;;;3.33;3.33;;;;;11.68;80.09;101461.50;5144112;27;45257;-81
2022/01/03 00:52:05;;;;;;;;;4.33;2.67;;;;;11.66;80.02;101464.34;5161517;27;45337;-81
2022/01/03 00:54:30;;;;;;;;;6.00;4.67;;;;;11.72;80.19;101484.13;5143973;27;46069;-81
2022/01/03 00:57:04;;;;;;;;;6.00;4.00;;;;;11.70;80.10;101484.31;5162781;27;45341;-81
2022/01/03 00:59:42;;;;;;;;;4.00;3.67;;;;;11.62;80.09;101465.66;5143719;27;45489;-82
2022/01/03 01:02:10;;;;;;;;;3.67;2.00;;;;;11.60;80.10;101452.50;5162936;27;45404;-81
2022/01/03 01:04:36;;;;;;;;;7.33;3.67;;;;;11.69;80.42;101468.50;5143768;27;46359;-81
2022/01/03 01:07:05;;;;;;;;;5.00;5.00;;;;;11.69;79.81;101473.81;5169205;27;46111;-80
2022/01/03 01:09:30;;;;;;;;;8.00;8.00;;;;;11.70;80.26;101478.97;5169695;27;45336;-81
2022/01/03 01:11:58;;;;;;;;;6.00;4.00;;;;;11.60;80.41;101460.50;5150904;27;45381;-82
2022/01/03 01:14:25;;;;;;;;;4.67;3.00;;;;;11.72;80.23;101477.00;5150596;27;46257;-80
2022/01/03 01:16:51;;;;;;;;;4.33;3.00;;;;;11.70;80.31;101468.31;5169384;27;45664;-81
2022/01/03 01:19:20;;;;;;;;;4.67;4.00;;;;;11.60;80.20;101457.00;5169583;27;45244;-81
2022/01/03 01:21:50;;;;;;;;;7.67;6.00;;;;;11.67;80.25;101467.84;5150837;27;45283;-81
2022/01/03 01:24:18;;;;;;;;;5.33;4.00;;;;;11.66;80.61;101461.66;5169132;27;45232;-81
2022/01/03 01:29:28;;;;;;;;;6.00;4.00;;;;;11.62;80.31;101457.69;5169207;27;45301;-81
2022/01/03 01:32:00;;;;;;;;;8.00;4.33;;;;;11.66;80.09;101467.00;5169339;27;45443;-81
2022/01/03 01:34:28;;;;;;;;;9.00;4.00;;;;;11.60;80.41;101454.31;5169290;27;45279;-82
2022/01/03 01:36:56;;;;;;;;;6.00;2.33;;;;;11.66;80.24;101472.31;5163087;27;48054;-81
2022/01/03 01:39:26;;;;;;;;;5.67;3.67;;;;;11.62;80.34;101477.13;5129546;27;45721;-80
2022/01/03 01:42:03;;;;;;;;;5.33;4.00;;;;;11.52;80.49;101465.78;5148270;27;45161;-81
2022/01/03 01:44:32;;;;;;;;;6.67;1.67;;;;;11.52;81.08;101462.31;5129288;27;46348;-81
2022/01/03 01:47:03;;;;;;;;;4.33;4.33;;;;;11.60;80.53;101471.16;5129116;27;47328;-81
2022/01/03 01:49:36;;;;;;;;;5.67;4.00;;;;;11.46;80.25;101451.31;5148133;27;45404;-81
2022/01/03 01:52:03;;;;;;;;;7.00;5.67;;;;;11.64;80.46;101484.94;5129045;27;45298;-81
2022/01/03 01:54:36;;;;;;;;;5.00;2.33;;;;;11.58;80.56;101472.28;5129218;27;47344;-80
2022/01/03 01:57:07;;;;;;;;;5.00;4.33;;;;;11.66;80.80;101482.13;5147930;27;46140;-80
2022/01/03 01:59:51;;;;;;;;;2.67;2.67;;;;;11.56;80.76;101464.50;5147810;27;45308;-81
2022/01/03 02:02:29;;;;;;;;;4.67;3.33;;;;;11.45;81.20;101446.16;5148017;27;45289;-80
2022/01/03 02:05:08;;;;;;;;;6.00;4.67;;;;;11.58;80.96;101475.78;5128541;27;46533;-81
2022/01/03 02:07:57;;;;;;;;;6.00;3.67;;;;;11.55;80.94;101462.00;5128710;27;47285;-80
2022/01/03 02:10:29;;;;;;;;;5.33;3.00;;;;;11.43;81.05;101448.16;5147756;27;45296;-80
2022/01/03 02:12:56;;;;;;;;;5.67;2.67;;;;;11.32;80.83;101436.78;5148154;27;45386;-81
2022/01/03 02:15:22;;;;;;;;;5.00;2.00;;;;;11.39;81.38;101452.94;5147599;27;45452;-80
2022/01/03 02:17:48;;;;;;;;;5.00;4.00;;;;;11.40;81.39;101462.59;5144084;27;45993;-81
2022/01/03 02:20:21;;;;;;;;;7.00;3.00;;;;;11.30;81.68;101454.75;5125685;27;45542;-81
2022/01/03 02:22:47;;;;;;;;;7.00;4.33;;;;;11.25;81.69;101451.75;5125606;27;45480;-80
2022/01/03 02:25:14;;;;;;;;;6.00;6.00;;;;;11.22;81.70;101452.91;5144159;27;45335;-81
2022/01/03 02:27:41;;;;;;;;;4.00;4.00;;;;;11.16;81.90;101436.75;5125522;27;48134;-82
2022/01/03 02:30:10;;;;;;;;;10.33;5.33;;;;;11.26;82.21;101452.59;5144032;27;45283;-81
2022/01/03 02:32:35;;;;;;;;;3.00;3.00;;;;;11.27;81.82;101454.25;5144182;27;45314;-81
2022/01/03 02:35:01;;;;;;;;;4.00;3.33;;;;;11.08;82.32;101433.06;5144089;27;45236;-81
2022/01/03 02:37:26;;;;;;;;;7.33;4.67;;;;;11.23;82.41;101454.56;5124939;27;47173;-81
2022/01/03 02:39:55;;;;;;;;;5.00;4.67;;;;;11.23;82.46;101454.56;5125414;27;45356;-80
2022/01/03 02:42:23;;;;;;;;;5.67;5.67;;;;;11.18;82.69;101458.69;5125247;27;45208;-81
2022/01/03 02:45:05;;;;;;;;;4.00;4.00;;;;;11.20;82.79;101460.19;5143810;27;45389;-80
2022/01/03 02:47:31;;;;;;;;;7.00;7.00;;;;;11.16;82.80;101458.84;5143673;27;45292;-80
2022/01/03 02:49:56;;;;;;;;;8.33;5.67;;;;;11.26;82.83;101473.88;5143896;27;45308;-80
2022/01/03 02:52:21;;;;;;;;;7.00;7.00;;;;;11.19;82.83;101453.22;5125084;27;45503;-81
2022/01/03 02:54:48;;;;;;;;;6.33;5.33;;;;;11.27;83.36;101443.59;5143808;27;45276;-80
2022/01/03 02:57:14;;;;;;;;;9.33;6.00;;;;;11.21;83.06;101442.41;5143755;27;45343;-80
2022/01/03 02:59:39;;;;;;;;;5.67;3.67;;;;;11.19;82.61;101431.94;5124630;27;45494;-81
2022/01/03 03:02:05;;;;;;;;;9.00;6.33;;;;;11.29;82.84;101444.28;5142497;27;45278;-81
2022/01/03 03:04:31;;;;;;;;;3.67;2.33;;;;;11.21;83.09;101437.09;5143326;27;45305;-81
2022/01/03 03:06:56;;;;;;;;;7.33;6.67;;;;;11.32;83.18;101470.56;5141946;27;45398;-81
2022/01/03 03:09:21;;;;;;;;;5.00;3.00;;;;;11.22;82.96;101452.91;5143639;27;45287;-81
2022/01/03 03:11:47;;;;;;;;;5.67;5.67;;;;;11.31;83.10;101471.56;5143625;27;45399;-81
2022/01/03 03:14:12;;;;;;;;;4.33;3.00;;;;;11.16;83.23;101445.56;5143389;27;45317;-81
2022/01/03 03:16:38;;;;;;;;;12.00;7.67;;;;;11.16;83.17;101432.25;5143401;27;45358;-81
2022/01/03 03:19:03;;;;;;;;;5.00;4.00;;;;;11.22;83.23;101436.94;5124689;27;45346;-80
2022/01/03 03:21:30;;;;;;;;;5.00;3.33;;;;;11.31;83.43;101444.97;5143626;27;45278;-80
2022/01/03 03:23:57;;;;;;;;;3.00;3.00;;;;;11.31;83.28;101432.47;5143114;27;45206;-81
2022/01/03 03:26:23;;;;;;;;;4.67;2.00;;;;;11.19;83.40;101405.31;5143010;27;45264;-81
2022/01/03 03:28:48;;;;;;;;;4.00;4.00;;;;;11.25;83.11;101419.81;5124232;27;45231;-82
2022/01/03 03:31:14;;;;;;;;;5.00;2.00;;;;;11.28;83.29;101426.66;5124738;27;45421;-81
2022/01/03 03:33:39;;;;;;;;;9.00;4.33;;;;;11.24;83.02;101426.97;5143098;27;45304;-81
2022/01/03 03:36:06;;;;;;;;;8.00;5.00;;;;;11.28;83.46;101429.31;5124374;27;47136;-81
2022/01/03 03:38:31;;;;;;;;;6.00;5.33;;;;;11.22;83.36;101418.31;5138652;27;45735;-80
2022/01/03 03:40:58;;;;;;;;;4.33;1.33;;;;;11.33;83.13;101429.66;5143070;27;45295;-81
2022/01/03 03:43:24;;;;;;;;;6.00;3.67;;;;;11.33;83.35;101426.97;5141498;27;46094;-81
2022/01/03 03:45:50;;;;;;;;;4.33;3.33;;;;;11.33;83.53;101425.16;5141577;27;47001;-80
2022/01/03 03:48:17;;;;;;;;;4.67;4.67;;;;;11.24;83.52;101410.16;5142857;27;45285;-80
2022/01/03 03:50:42;;;;;;;;;7.00;5.00;;;;;11.32;83.61;101422.66;5124386;27;45223;-81
2022/01/03 03:53:08;;;;;;;;;5.33;5.33;;;;;11.27;83.58;101414.31;5142573;27;45320;-81
2022/01/03 03:55:34;;;;;;;;;6.00;4.67;;;;;11.36;83.46;101421.34;5142772;27;45357;-81
2022/01/03 03:58:01;;;;;;;;;5.00;4.00;;;;;11.29;83.31;101413.19;5142762;27;45368;-81
2022/01/03 04:00:27;;;;;;;;;4.00;4.00;;;;;11.26;83.18;101402.03;5141359;27;45258;-81
2022/01/03 04:02:53;;;;;;;;;7.00;4.67;;;;;11.40;83.40;101413.88;5123801;27;46571;-81
2022/01/03 04:05:18;;;;;;;;;6.67;4.00;;;;;11.23;83.48;101382.72;5142154;27;45408;-81
2022/01/03 04:07:45;;;;;;;;;2.50;2.50;;;;;11.38;83.55;101413.19;5123729;27;45262;-81
2022/01/03 04:10:13;;;;;;;;;6.00;3.67;;;;;11.42;83.70;101419.84;5123972;27;45291;-80
2022/01/03 04:12:38;;;;;;;;;3.33;3.33;;;;;11.38;83.29;101397.22;5142464;27;46091;-81
2022/01/03 04:15:05;;;;;;;;;8.33;5.67;;;;;11.43;83.84;101403.72;5142307;27;45430;-81
2022/01/03 04:17:30;;;;;;;;;3.33;2.00;;;;;11.46;83.20;101405.22;5123777;27;46505;-80
2022/01/03 04:19:56;;;;;;;;;5.00;5.00;;;;;11.42;83.31;101388.75;5123653;27;45360;-80
2022/01/03 04:22:21;;;;;;;;;6.33;4.67;;;;;11.39;83.42;101377.59;5142123;27;45315;-80
2022/01/03 04:24:47;;;;;;;;;6.33;4.00;;;;;11.38;83.04;101368.78;5142249;27;45316;-80
2022/01/03 04:27:12;;;;;;;;;4.00;2.67;;;;;11.42;83.32;101369.28;5142212;27;45214;-81
2022/01/03 04:29:38;;;;;;;;;4.00;4.00;;;;;11.46;82.94;101382.09;5123523;27;45294;-81
2022/01/03 04:32:03;;;;;;;;;6.00;4.00;;;;;11.41;83.10;101362.31;5142140;27;45537;-81
2022/01/03 04:34:29;;;;;;;;;6.67;6.67;;;;;11.45;82.74;101367.13;5142121;27;45293;-81
2022/01/03 04:36:54;;;;;;;;;3.00;2.00;;;;;11.41;82.96;101362.31;5123254;27;45322;-80
2022/01/03 04:39:20;;;;;;;;;6.00;5.67;;;;;11.41;82.96;101360.47;5142052;27;45312;-81
2022/01/03 04:41:45;;;;;;;;;9.00;4.33;;;;;11.44;82.85;101364.63;5123075;27;46071;-81
2022/01/03 04:44:11;;;;;;;;;8.67;4.00;;;;;11.36;82.95;101354.81;5123071;27;48546;-80
2022/01/03 04:46:37;;;;;;;;;8.67;4.33;;;;;11.45;82.81;101368.94;5142001;27;45259;-81
2022/01/03 04:49:05;;;;;;;;;4.00;4.00;;;;;11.41;82.91;101356.97;5142110;27;45269;-81
2022/01/03 04:51:30;;;;;;;;;6.00;4.00;;;;;11.52;82.72;101363.81;5141910;27;45455;-80
2022/01/03 04:53:56;;;;;;;;;5.67;4.00;;;;;11.32;82.83;101335.66;5141550;27;45333;-80
2022/01/03 04:56:21;;;;;;;;;7.00;4.00;;;;;11.44;82.69;101364.63;5123157;27;45336;-81
2022/01/03 04:58:47;;;;;;;;;4.00;3.67;;;;;11.53;82.49;101376.97;5141896;27;45512;-81
2022/01/03 05:01:12;;;;;;;;;5.00;4.00;;;;;11.44;82.54;101359.31;5141812;27;45348;-82
2022/01/03 05:03:38;;;;;;;;;5.00;3.33;;;;;11.48;82.60;101374.78;5141708;27;45793;-80
2022/01/03 05:06:04;;;;;;;;;6.00;4.00;;;;;11.47;82.73;101370.44;5122595;27;45277;-80
2022/01/03 05:08:31;;;;;;;;;4.00;4.00;;;;;11.45;82.58;101355.66;5141552;27;45327;-80
2022/01/03 05:11:01;;;;;;;;;6.00;5.33;;;;;11.50;82.99;101366.66;5141782;27;45221;-80
2022/01/03 05:13:31;;;;;;;;;3.00;2.67;;;;;11.39;82.75;101346.50;5141353;27;45400;-80
2022/01/03 05:15:58;;;;;;;;;3.33;2.33;;;;;11.45;82.51;101356.50;5141694;27;45191;-81
2022/01/03 05:18:23;;;;;;;;;5.00;5.00;;;;;11.53;82.46;101363.66;5141633;27;45252;-81
2022/01/03 05:20:49;;;;;;;;;5.33;2.33;;;;;11.50;82.45;101350.66;5141524;27;45296;-80
2022/01/03 05:23:14;;;;;;;;;4.00;4.00;;;;;11.53;82.79;101353.00;5141281;27;45336;-80
2022/01/03 05:25:39;;;;;;;;;6.33;4.00;;;;;11.46;82.76;101342.16;5122714;27;45705;-80
2022/01/03 05:28:05;;;;;;;;;4.67;4.00;;;;;11.47;82.79;101343.81;5141555;27;45976;-81
2022/01/03 05:30:31;;;;;;;;;5.33;3.67;;;;;11.51;82.57;101347.00;5141206;27;45238;-81
2022/01/03 05:32:56;;;;;;;;;4.33;4.00;;;;;11.58;82.76;101357.81;5141308;27;46094;-81
2022/01/03 05:35:21;;;;;;;;;5.67;5.00;;;;;11.57;83.07;101358.81;5122584;27;45336;-81
2022/01/03 05:37:47;;;;;;;;;4.33;3.00;;;;;11.45;82.99;101345.84;5122450;27;45477;-81
2022/01/03 05:40:12;;;;;;;;;7.00;3.00;;;;;11.47;82.48;101343.00;5141277;27;45428;-81
2022/01/03 05:42:38;;;;;;;;;4.00;3.33;;;;;11.58;82.69;101356.00;5141205;27;46140;-81
2022/01/03 05:45:04;;;;;;;;;6.33;5.00;;;;;11.58;82.83;101358.66;5141094;27;45328;-81
2022/01/03 05:47:30;;;;;;;;;5.33;4.67;;;;;11.49;82.63;101343.66;5141365;27;45274;-81
2022/01/03 05:49:56;;;;;;;;;10.67;3.33;;;;;11.58;82.80;101353.31;5141063;27;45488;-81
2022/01/03 05:52:22;;;;;;;;;3.67;2.33;;;;;11.49;82.42;101349.81;5141886;27;45167;-81
2022/01/03 05:54:47;;;;;;;;;5.33;3.00;;;;;11.37;82.65;101321.88;5125999;27;45738;-80
2022/01/03 05:57:13;;;;;;;;;6.00;4.33;;;;;11.52;82.70;101339.88;5144859;27;45235;-81
2022/01/03 05:59:38;;;;;;;;;6.00;4.00;;;;;11.50;82.54;101334.69;5144727;27;45239;-80
2022/01/03 06:02:04;;;;;;;;;6.00;2.00;;;;;11.52;82.70;101331.88;5144679;27;45577;-80
2022/01/03 06:07:21;;;;;;;;;5.33;5.00;;;;;11.52;82.66;101335.34;5124085;27;45515;-81
2022/01/03 06:09:48;;;;;;;;;4.00;2.67;;;;;11.60;82.48;101347.84;5144472;27;45176;-80
2022/01/03 06:12:16;;;;;;;;;4.00;4.00;;;;;11.52;82.71;101334.53;5144316;27;46071;-81
2022/01/03 06:14:42;;;;;;;;;3.33;3.33;;;;;11.56;82.61;101342.03;5144354;27;45251;-80
2022/01/03 06:17:07;;;;;;;;;6.00;4.67;;;;;11.50;82.61;101332.03;5144445;27;45269;-80
2022/01/03 06:19:33;;;;;;;;;4.33;3.33;;;;;11.57;82.66;101346.34;5144413;27;45459;-81
2022/01/03 06:21:59;;;;;;;;;7.67;4.33;;;;;11.51;82.77;101333.69;5143918;27;46299;-81
2022/01/03 06:24:25;;;;;;;;;2.00;2.00;;;;;11.51;82.39;101351.47;5144199;27;45292;-81
2022/01/03 06:26:50;;;;;;;;;4.00;3.33;;;;;11.47;82.50;101341.16;5144374;27;45471;-81
2022/01/03 06:29:18;;;;;;;;;6.33;5.33;;;;;11.53;82.59;101346.84;5144009;27;45225;-81
2022/01/03 06:31:44;;;;;;;;;5.33;3.67;;;;;11.51;82.60;101336.34;5144018;27;45351;-81
2022/01/03 06:34:09;;;;;;;;;2.67;1.67;;;;;11.54;82.84;101343.16;5142555;27;45909;-81
2022/01/03 06:36:35;;;;;;;;;6.00;4.33;;;;;11.48;82.77;101336.69;5145459;27;45301;-80
2022/01/03 06:39:01;;;;;;;;;5.33;3.67;;;;;11.53;82.72;101346.84;5145959;27;46227;-81
2022/01/03 06:41:27;;;;;;;;;9.33;3.00;;;;;11.38;82.49;101331.53;5164881;27;45415;-81
2022/01/03 06:43:52;;;;;;;;;6.33;4.00;;;;;11.41;82.52;101335.69;5164796;27;45305;-81
2022/01/03 06:46:18;;;;;;;;;3.33;3.00;;;;;11.42;82.93;101324.88;5164833;27;45239;-82
2022/01/03 06:48:46;;;;;;;;;7.00;5.00;;;;;11.45;82.54;101313.91;5146090;27;47030;-81
2022/01/03 06:51:12;;;;;;;;;4.33;2.00;;;;;11.36;82.64;101305.09;5164764;27;45634;-80
2022/01/03 06:53:37;;;;;;;;;5.00;3.33;;;;;11.32;82.98;101303.72;5145661;27;45255;-81
2022/01/03 06:56:03;;;;;;;;;4.00;2.33;;;;;11.51;82.87;101335.50;5164907;27;45612;-81
2022/01/03 06:58:28;;;;;;;;;5.00;3.33;;;;;11.44;83.10;101319.38;5164490;27;45306;-82
2022/01/03 07:00:54;;;;;;;;;6.33;4.33;;;;;11.49;82.90;101323.22;5145828;27;48159;-81
2022/01/03 07:03:21;;;;;;;;;4.67;4.33;;;;;11.42;82.90;101316.88;5163927;27;45331;-81
2022/01/03 07:05:46;;;;;;;;;6.00;6.00;;;;;11.45;82.81;101321.03;5145455;27;45310;-81
2022/01/03 07:08:11;;;;;;;;;5.67;5.67;;;;;11.37;83.07;101305.91;5164220;27;45434;-81
2022/01/03 07:10:37;;;;;;;;;7.00;4.00;;;;;11.46;83.17;101328.03;5164366;27;45367;-81
2022/01/03 07:13:02;;;;;;;;;6.67;5.67;;;;;11.50;83.09;101329.38;5145892;27;45992;-80
2022/01/03 07:20:57;;;;;;;;;9.00;6.33;;;;;11.46;83.34;101312.88;5164032;27;45742;-81
2022/01/03 07:23:22;;;;;;;;;4.33;4.00;;;;;11.39;83.19;101298.59;5164051;27;45317;-81
2022/01/03 07:25:49;;;;;;;;;7.00;7.00;;;;;11.35;83.31;101292.75;5164496;27;45366;-81
2022/01/03 07:28:15;;;;;;;;;6.33;5.00;;;;;11.38;83.28;101298.75;5164124;27;45641;-80
2022/01/03 07:30:41;;;;;;;;;6.33;6.33;;;;;11.46;83.44;101318.22;5164149;27;45342;-80
2022/01/03 07:33:07;;;;;;;;;5.33;3.00;;;;;11.48;83.35;101310.06;5164075;27;45276;-81
2022/01/03 07:35:33;;;;;;;;;7.00;4.67;;;;;11.43;83.15;101294.59;5164283;27;45350;-80
2022/01/03 07:37:59;;;;;;;;;4.33;4.33;;;;;11.51;83.48;101314.22;5150086;27;45265;-80
2022/01/03 07:40:25;;;;;;;;;6.00;5.33;;;;;11.42;83.54;101303.59;5124339;27;47425;-80
2022/01/03 07:42:51;;;;;;;;;5.00;5.00;;;;;11.40;83.55;101288.78;5143011;27;45324;-81
2022/01/03 07:45:17;;;;;;;;;5.33;4.67;;;;;11.44;83.46;101298.91;5139154;27;45436;-80
2022/01/03 07:47:42;;;;;;;;;7.00;7.00;;;;;11.38;83.51;101283.63;5161587;27;45505;-80
2022/01/03 07:50:09;;;;;;;;;11.33;7.67;;;;;11.48;83.72;101300.25;5163708;27;46213;-81
2022/01/03 07:52:35;;;;;;;;;6.67;6.00;;;;;11.36;83.51;101282.94;5158413;27;45229;-82
2022/01/03 07:55:01;;;;;;;;;5.33;4.00;;;;;11.40;83.52;101294.09;5150960;27;45491;-81
2022/01/03 07:57:26;;;;;;;;;9.33;6.67;;;;;11.38;83.66;101290.78;5144975;27;47064;-82
2022/01/03 07:59:51;;;;;;;;;7.00;6.00;;;;;11.47;83.70;101308.41;5144929;27;47051;-83
2022/01/03 08:02:18;;;;;;;;;7.33;5.00;;;;;11.36;83.86;101285.63;5163464;27;45226;-82
2022/01/03 08:04:44;;;;;;;;;7.00;4.00;;;;;11.38;83.91;101288.94;5144853;27;45379;-81
2022/01/03 08:07:13;;;;;;;;;5.67;5.33;;;;;11.43;83.69;101291.94;5144415;27;46145;-82
2022/01/03 08:09:38;;;;;;;;;5.00;4.67;;;;;11.34;83.74;101287.59;5144467;27;47643;-82
2022/01/03 08:12:05;;;;;;;;;5.33;4.00;;;;;11.43;83.89;101283.94;5144703;27;45297;-82
2022/01/03 08:14:31;;;;;;;;;5.67;5.00;;;;;11.12;84.02;101234.06;5141197;27;45376;-80
2022/01/03 08:16:56;;;;;;;;;6.67;4.67;;;;;11.40;83.88;101284.28;5142086;27;47198;-80
2022/01/03 08:19:22;;;;;;;;;5.00;4.67;;;;;11.49;84.11;101309.91;5163532;27;45549;-79
2022/01/03 08:21:47;;;;;;;;;6.33;5.00;;;;;11.43;83.82;101281.28;5144404;27;45177;-79
2022/01/03 08:24:13;;;;;;;;;4.67;4.67;;;;;11.41;83.86;101277.97;5144564;27;45527;-79
2022/01/03 08:26:38;;;;;;;;;7.33;6.33;;;;;11.45;83.84;101283.78;5163108;27;45291;-79
2022/01/03 08:29:05;;;;;;;;;4.67;4.00;;;;;11.52;83.90;101284.78;5163165;27;45511;-78
2022/01/03 08:31:31;;;;;;;;;7.00;3.33;;;;;11.53;83.68;101288.28;5163168;27;45329;-79
2022/01/03 08:33:57;;;;;;;;;9.67;6.00;;;;;11.55;84.04;101291.63;5139706;27;45304;-79
2022/01/03 08:36:22;;;;;;;;;7.33;5.00;;;;;11.44;83.96;101277.63;5120638;27;45355;-79
2022/01/03 08:38:48;;;;;;;;;5.00;5.00;;;;;11.55;84.08;101286.28;5141044;27;46110;-79
2022/01/03 08:41:13;;;;;;;;;6.33;5.67;;;;;11.52;83.91;101276.78;5122680;27;45327;-79
2022/01/03 08:43:38;;;;;;;;;4.33;3.00;;;;;11.53;84.13;101266.97;5141441;27;45287;-79
2022/01/03 08:46:04;;;;;;;;;6.00;5.00;;;;;11.65;84.05;101286.09;5160591;27;45487;-79
2022/01/03 08:48:29;;;;;;;;;7.00;4.00;;;;;11.53;83.88;101278.47;5144098;27;47427;-79
2022/01/03 08:50:55;;;;;;;;;6.00;3.67;;;;;11.68;83.93;101291.94;5144008;27;45213;-80
2022/01/03 08:53:26;;;;;;;;;4.67;4.00;;;;;11.60;83.98;101290.09;5162909;27;45221;-78
2022/01/03 08:55:52;;;;;;;;;8.00;8.00;;;;;11.40;83.92;101255.00;5161604;27;45308;-76
2022/01/03 08:58:18;;;;;;;;;7.67;4.00;;;;;11.66;83.90;101285.09;5162069;27;46512;-76
2022/01/03 09:00:45;;;;;;;;;8.33;6.33;;;;;11.71;83.75;101272.13;5162803;27;45254;-76
2022/01/03 09:03:10;;;;;;;;;8.33;6.33;;;;;11.59;84.31;101253.81;5144024;27;45394;-76
2022/01/03 09:05:36;;;;;;;;;7.00;7.00;;;;;11.72;83.81;101276.44;5143451;27;46406;-76
2022/01/03 09:08:02;;;;;;;;;4.67;4.00;;;;;11.65;83.65;101260.31;5162330;27;46459;-76
2022/01/03 09:10:28;;;;;;;;;6.00;3.33;;;;;11.76;83.75;101268.97;5162322;27;45159;-76
2022/01/03 09:12:53;;;;;;;;;3.67;3.33;;;;;11.66;83.70;101261.97;5162801;27;45176;-77
2022/01/03 09:15:19;;;;;;;;;4.00;3.67;;;;;11.75;83.57;101286.75;5162473;27;45205;-77
2022/01/03 09:17:44;;;;;;;;;7.33;6.67;;;;;11.72;83.83;101287.09;5162459;27;45287;-76
2022/01/03 09:20:10;;;;;;;;;3.67;3.00;;;;;11.81;83.54;101279.91;5161131;27;45410;-75
2022/01/03 09:22:41;;;;;;;;;13.33;11.67;;;;;11.82;83.80;101279.75;5160124;27;45465;-74
2022/01/03 09:29:58;;;;;;;;;7.00;4.67;;;;;12.20;83.34;101283.69;5096926;27;45156;-77
2022/01/03 09:32:23;;;;;;;;;8.67;7.67;;;;;12.15;83.16;101259.41;5097222;27;45247;-78
2022/01/03 09:34:49;;;;;;;;;5.67;5.00;;;;;12.23;83.09;101264.69;5096576;27;45363;-77
2022/01/03 09:37:19;;;;;;;;;6.67;3.33;;;;;12.26;83.00;101269.69;5101812;27;46441;-77
2022/01/03 09:39:46;;;;;;;;;4.00;3.33;;;;;12.27;82.87;101258.00;5106231;27;45415;-79
2022/01/03 09:42:14;;;;;;;;;5.33;4.67;;;;;12.16;82.67;101245.91;5087566;27;45433;-78
2022/01/03 09:44:41;;;;;;;;;5.00;5.00;;;;;12.20;83.31;101249.88;5076716;27;45162;-79
2022/01/03 09:47:10;;;;;;;;;11.00;9.00;;;;;12.30;83.04;101252.31;5076715;27;45650;-78
2022/01/03 09:49:38;;;;;;;;;9.00;5.33;;;;;12.35;82.95;101259.81;5093371;27;45471;-78
2022/01/03 09:52:06;;;;;;;;;6.00;4.00;;;;;12.39;82.83;101254.97;5115191;27;45330;-79
2022/01/03 09:54:33;;;;;;;;;4.00;2.67;;;;;12.41;82.28;101266.28;5095713;27;46611;-78
2022/01/03 09:57:00;;;;;;;;;3.00;2.33;;;;;12.37;82.30;101260.47;5097075;27;45355;-78
2022/01/03 09:59:27;;;;;;;;;4.33;3.33;;;;;12.36;82.42;101261.47;5095437;27;45366;-78
2022/01/03 10:01:53;;;;;;;;;5.00;5.00;;;;;12.29;82.29;101244.50;5096283;27;45227;-78
2022/01/03 10:04:19;;;;;;;;;3.33;3.00;;;;;12.33;82.37;101248.50;5089717;27;45137;-78
2022/01/03 10:06:45;;;;;;;;;10.00;7.00;;;;;12.39;82.69;101250.44;5075826;28;45257;-76
2022/01/03 10:09:10;;;;;;;;;4.33;4.33;;;;;12.37;82.23;101252.47;5075002;28;45785;-77
2022/01/03 10:11:36;;;;;;;;;6.00;5.00;;;;;12.35;82.06;101257.13;5076196;28;45508;-78
2022/01/03 10:14:01;;;;;;;;;3.00;3.00;;;;;12.41;82.22;101251.13;5118909;27;46293;-76
2022/01/03 10:16:28;;;;;;;;;4.00;4.00;;;;;12.36;82.04;101242.81;5096331;27;46351;-77
2022/01/03 10:18:54;;;;;;;;;6.00;5.00;;;;;12.34;82.16;101227.00;5112162;27;45302;-76
2022/01/03 10:21:38;;;;;;;;;7.00;4.33;;;;;12.28;82.29;101229.53;5096459;27;45456;-78
2022/01/03 10:24:05;;;;;;;;;4.33;2.67;;;;;12.40;82.11;101249.47;5096444;27;45321;-76
2022/01/03 10:26:30;;;;;;;;;9.33;5.33;;;;;12.41;82.00;101250.28;5095987;27;45573;-75
2022/01/03 10:29:31;;;;;;;;;9.00;4.67;;;;;12.42;81.90;101244.78;5089861;27;45440;-76
2022/01/03 10:31:59;;;;;;;;;9.33;7.00;;;;;12.35;81.61;101233.16;5061351;27;45300;-77
2022/01/03 10:34:25;;;;;;;;;6.00;6.00;;;;;12.40;81.72;101230.81;5074229;27;45272;-76
2022/01/03 10:36:54;;;;;;;;;2.00;2.00;;;;;12.35;81.72;101214.50;5078439;27;46064;-76
2022/01/03 10:39:21;;;;;;;;;9.33;8.67;;;;;12.41;81.42;101220.97;5067517;28;45400;-76
2022/01/03 10:42:10;;;;;;;;;5.33;3.00;;;;;12.41;81.42;101224.47;5067538;28;45461;-76
2022/01/03 10:44:37;;;;;;;;;6.00;4.33;;;;;12.37;81.84;101212.50;5071672;28;45288;-76
2022/01/03 10:47:05;;;;;;;;;4.67;3.67;;;;;12.43;81.67;101218.97;5065410;27;45275;-76
2022/01/03 10:49:32;;;;;;;;;5.33;4.67;;;;;12.36;81.41;101214.31;5066472;28;45176;-77
2022/01/03 10:52:23;;;;;;;;;5.00;3.00;;;;;12.41;81.53;101216.47;5082245;27;45319;-76
2022/01/03 10:55:07;;;;;;;;;2.33;1.00;;;;;12.41;81.45;101205.81;5080779;28;47388;-77
2022/01/03 10:58:01;;;;;;;;;5.00;3.00;;;;;12.43;81.54;101194.97;5069229;28;45302;-77
2022/01/03 11:00:32;;;;;;;;;2.33;2.33;;;;;12.42;81.23;101194.13;5065728;27;45757;-78
2022/01/03 11:05:52;;;;;;;;;5.67;4.33;;;;;12.42;81.15;101196.78;5081685;27;45571;-77
2022/01/03 11:11:06;;;;;;;;;7.33;4.33;;;;;12.40;81.04;101180.16;5081791;28;45279;-77
2022/01/03 11:13:32;;;;;;;;;6.00;6.00;;;;;12.41;81.26;101172.97;5081916;28;45262;-79
2022/01/03 11:16:05;;;;;;;;;9.67;9.67;;;;;12.41;81.38;101157.81;5081928;27;45322;-79
2022/01/03 11:18:38;;;;;;;;;4.67;4.67;;;;;12.43;81.45;101158.50;5080300;28;48171;-78
2022/01/03 11:21:09;;;;;;;;;8.33;6.00;;;;;12.45;81.49;101151.13;5081761;27;45322;-78
2022/01/03 11:23:35;;;;;;;;;4.33;3.00;;;;;12.43;81.28;101150.50;5081754;27;45156;-77
2022/01/03 11:26:06;;;;;;;;;5.67;4.33;;;;;12.52;81.30;101150.44;5081616;27;45358;-78
2022/01/03 11:28:31;;;;;;;;;5.33;5.00;;;;;12.50;81.07;101135.44;5081569;27;46660;-78
2022/01/03 11:30:59;;;;;;;;;3.33;3.33;;;;;12.40;80.92;101097.53;5081670;28;45307;-79
2022/01/03 11:33:26;;;;;;;;;6.33;5.00;;;;;12.53;81.11;101131.59;5081796;27;45226;-78
2022/01/03 11:35:51;;;;;;;;;5.00;4.00;;;;;12.45;80.96;101119.13;5081461;27;45337;-78
2022/01/03 11:38:21;;;;;;;;;6.67;6.33;;;;;12.58;80.89;101120.38;5096462;27;45921;-78
2022/01/03 11:40:48;;;;;;;;;5.00;4.00;;;;;12.50;80.99;101102.63;5102063;27;45257;-78
2022/01/03 11:43:14;;;;;;;;;9.33;6.00;;;;;12.62;80.95;101106.53;5100468;27;45235;-78
2022/01/03 11:45:40;;;;;;;;;7.67;6.67;;;;;12.53;80.84;101085.41;5101637;27;45568;-79